Almonesson, New Jersey
Current Conditions -  °F | °C
As of 5:54 PM on Saturday 25 Oct 2014 (Local Time) from KPHL Reporting Station
Few Clouds Few Clouds  
Wind Chill: 66°   Ceiling: Unl
Heat Index: 66°   Visibility: 10mi
Dew Point: 46°   Wind: 9mph
Humidity: 48%   Direction: 230°SW
Pressure: 29.7"   Gusts: NA
Location:  39.8266°N, 75.1276°W
Report Text: KPHL 252154Z 23008KT 10SM FEW070 19/08 A2970 RMK AO2 SLP056 T01890078
Loading
Personal Weather Stations






























Interactive Weather Map
Tropical Storm Tracking
New forecast layout! Learn more

10-Day Weather Forecast

Advertisements
Track Severe Weather on mobile